Time;durP1;ratioP1;P1;durP2;ratioP2;P2;SDS_P1;SDS_P2;PMS_P1;PMS_P2;Temp;Humidity;BMP_temperature;BMP_pressure;BME280_temperature;BME280_humidity;BME280_pressure;Samples;Min_cycle;Max_cycle;Signal;HPM_P1;HPM_P2
2021/01/27 00:00:22;;;;;;;14.88;8.80;;;2.80;99.90;;;;;;5080015;28;20053;-74
2021/01/27 00:02:48;;;;;;;14.98;9.88;;;2.90;99.90;;;;;;5072574;28;20032;-74
2021/01/27 00:05:18;;;;;;;13.02;9.85;;;2.90;99.90;;;;;;5078258;28;20390;-73
2021/01/27 00:07:44;;;;;;;11.73;8.85;;;2.80;99.90;;;;;;5082171;28;20053;-74
2021/01/27 00:10:11;;;;;;;13.82;10.18;;;2.80;99.90;;;;;;5079007;28;20028;-74
2021/01/27 00:12:37;;;;;;;10.07;8.98;;;2.80;99.90;;;;;;5076325;28;20020;-74
2021/01/27 00:15:14;;;;;;;15.15;10.13;;;2.80;99.90;;;;;;5079295;28;20036;-73
2021/01/27 00:17:39;;;;;;;7.65;6.68;;;2.70;99.90;;;;;;5079594;28;20546;-74
2021/01/27 00:20:09;;;;;;;13.18;10.10;;;2.80;99.90;;;;;;5077914;28;20025;-73
2021/01/27 00:22:35;;;;;;;11.50;8.88;;;2.80;99.90;;;;;;5075467;28;20386;-74
2021/01/27 00:25:01;;;;;;;11.00;8.82;;;2.80;99.90;;;;;;5079742;28;20025;-74
2021/01/27 00:27:27;;;;;;;13.55;9.07;;;2.70;99.90;;;;;;5070535;28;20095;-74
2021/01/27 00:29:53;;;;;;;11.82;9.50;;;2.80;99.90;;;;;;5077982;28;20055;-73
2021/01/27 00:32:19;;;;;;;10.40;9.05;;;2.70;99.90;;;;;;5073940;28;20017;-74
2021/01/27 00:34:45;;;;;;;12.57;9.77;;;2.80;99.90;;;;;;5072292;28;20464;-74
2021/01/27 00:37:11;;;;;;;11.80;8.40;;;2.80;99.90;;;;;;5073196;28;20675;-73
2021/01/27 00:39:36;;;;;;;14.48;10.02;;;2.80;99.90;;;;;;5073313;28;20028;-74
2021/01/27 00:42:02;;;;;;;10.02;8.10;;;2.90;99.90;;;;;;5065763;28;20012;-76
2021/01/27 00:44:28;;;;;;;11.35;8.13;;;2.90;99.90;;;;;;5072368;28;20116;-73
2021/01/27 00:46:54;;;;;;;13.10;7.00;;;2.90;99.90;;;;;;5067080;28;20051;-73
2021/01/27 00:49:24;;;;;;;10.63;7.50;;;2.90;99.90;;;;;;5072752;28;20037;-74
2021/01/27 00:51:50;;;;;;;12.20;7.95;;;2.90;99.90;;;;;;5072895;28;20530;-73
2021/01/27 00:54:16;;;;;;;9.00;6.40;;;2.80;99.90;;;;;;5075393;28;20082;-74
2021/01/27 00:56:42;;;;;;;9.93;7.57;;;2.80;99.90;;;;;;5066846;28;20029;-74
2021/01/27 00:59:08;;;;;;;10.90;8.88;;;2.70;99.90;;;;;;5079669;28;20025;-74
2021/01/27 01:01:34;;;;;;;9.52;7.00;;;2.60;99.90;;;;;;5072459;28;20039;-74
2021/01/27 01:04:03;;;;;;;11.77;7.18;;;2.60;99.90;;;;;;5078470;28;20048;-77
2021/01/27 01:06:29;;;;;;;9.98;6.80;;;2.60;99.90;;;;;;5077359;28;20028;-73
2021/01/27 01:08:55;;;;;;;10.68;7.68;;;2.70;99.90;;;;;;5076244;28;20040;-73
2021/01/27 01:11:21;;;;;;;7.32;6.03;;;2.70;99.90;;;;;;5067940;28;20032;-74
2021/01/27 01:13:47;;;;;;;9.10;6.93;;;2.70;99.90;;;;;;5069714;28;20067;-73
2021/01/27 01:16:14;;;;;;;7.13;6.38;;;2.80;99.90;;;;;;5075976;28;20024;-74
2021/01/27 01:18:39;;;;;;;11.18;7.50;;;2.80;99.90;;;;;;5065043;28;20440;-73
2021/01/27 01:21:08;;;;;;;13.02;7.03;;;2.70;99.90;;;;;;5071963;28;20047;-73
2021/01/27 01:23:34;;;;;;;9.55;6.43;;;2.70;99.90;;;;;;5071960;28;20031;-74
2021/01/27 01:26:00;;;;;;;12.13;7.03;;;2.70;99.90;;;;;;5063192;28;20100;-73
2021/01/27 01:28:25;;;;;;;8.77;6.72;;;2.70;99.90;;;;;;5072619;28;20024;-74
2021/01/27 01:30:51;;;;;;;10.95;9.40;;;2.80;99.90;;;;;;5068367;28;20525;-74
2021/01/27 01:33:29;;;;;;;9.88;7.55;;;2.80;99.90;;;;;;5070549;28;20024;-74
2021/01/27 01:35:55;;;;;;;9.05;5.95;;;2.60;99.90;;;;;;5073235;28;20051;-74
2021/01/27 01:38:22;;;;;;;7.97;5.38;;;2.60;99.90;;;;;;5076991;28;20025;-74
2021/01/27 01:40:56;;;;;;;11.45;7.40;;;2.60;99.90;;;;;;5081361;28;20024;-73
2021/01/27 01:43:28;;;;;;;10.15;6.03;;;2.60;99.90;;;;;;5070794;28;20028;-73
2021/01/27 01:45:57;;;;;;;7.05;5.88;;;2.60;99.90;;;;;;5073424;28;20067;-73
2021/01/27 01:48:33;;;;;;;7.55;6.03;;;2.60;99.90;;;;;;5076861;28;20036;-74
2021/01/27 01:51:30;;;;;;;9.75;6.80;;;2.60;99.90;;;;;;5071605;28;20029;-74
2021/01/27 01:54:02;;;;;;;6.88;5.38;;;2.60;99.90;;;;;;5068649;28;20024;-74
2021/01/27 01:56:29;;;;;;;;;;;2.50;99.90;;;;;;5072334;28;20024;-74
2021/01/27 01:58:59;;;;;;;8.90;6.35;;;2.50;99.90;;;;;;5065336;28;20003;-75
2021/01/27 02:01:28;;;;;;;9.23;6.15;;;2.50;99.90;;;;;;5066407;28;20013;-74
2021/01/27 02:03:55;;;;;;;9.30;6.43;;;2.50;99.90;;;;;;5058522;28;20049;-74
2021/01/27 02:06:21;;;;;;;8.73;6.53;;;2.50;99.90;;;;;;5066840;28;20082;-76
2021/01/27 02:08:55;;;;;;;7.18;5.60;;;2.50;99.90;;;;;;5070118;28;20039;-74
2021/01/27 02:11:48;;;;;;;8.73;6.22;;;2.40;99.90;;;;;;5068120;28;20052;-75
2021/01/27 02:14:35;;;;;;;11.50;6.60;;;2.40;99.90;;;;;;5066341;28;20028;-75
2021/01/27 02:17:09;;;;;;;7.97;5.13;;;2.40;99.90;;;;;;5069259;28;20112;-74
2021/01/27 02:20:03;;;;;;;9.15;5.28;;;2.40;99.90;;;;;;5064525;28;20025;-76
2021/01/27 02:22:50;;;;;;;7.35;5.88;;;2.40;99.90;;;;;;5060333;28;20048;-75
2021/01/27 02:25:35;;;;;;;6.95;5.80;;;2.40;99.90;;;;;;5072428;28;20122;-74
2021/01/27 02:28:05;;;;;;;8.65;6.35;;;2.40;99.90;;;;;;5070535;28;20032;-74
2021/01/27 02:31:01;;;;;;;10.48;7.65;;;2.50;99.90;;;;;;5075375;28;20017;-73
2021/01/27 02:34:06;;;;;;;8.95;6.03;;;2.40;99.90;;;;;;5074516;28;20104;-74
2021/01/27 02:36:43;;;;;;;7.30;5.30;;;2.20;99.90;;;;;;5062091;28;20033;-74
2021/01/27 02:39:15;;;;;;;6.80;6.10;;;2.10;99.90;;;;;;5069799;28;20025;-74
2021/01/27 02:42:07;;;;;;;8.75;6.47;;;2.10;99.90;;;;;;5068391;28;20026;-75
2021/01/27 02:44:51;;;;;;;7.45;5.18;;;2.00;99.90;;;;;;5073136;28;20027;-74
2021/01/27 02:47:24;;;;;;;7.90;6.60;;;2.20;99.90;;;;;;5069032;28;20021;-77
2021/01/27 02:50:22;;;;;;;6.55;5.15;;;2.30;99.90;;;;;;5068782;28;20039;-74
2021/01/27 02:53:00;;;;;;;7.75;5.53;;;2.30;99.90;;;;;;5069467;28;20040;-73
2021/01/27 02:55:39;;;;;;;9.77;5.82;;;2.20;99.90;;;;;;5073201;28;20032;-73
2021/01/27 02:58:21;;;;;;;8.02;6.18;;;2.20;99.90;;;;;;5076613;28;20012;-74
2021/01/27 03:00:54;;;;;;;7.30;5.32;;;2.20;99.90;;;;;;5071934;28;20017;-74
2021/01/27 03:03:27;;;;;;;10.15;4.88;;;2.20;99.90;;;;;;5075420;28;20021;-74
2021/01/27 03:05:58;;;;;;;6.55;5.80;;;2.20;99.90;;;;;;5072925;28;20143;-73
2021/01/27 03:08:36;;;;;;;9.13;5.97;;;2.10;99.90;;;;;;5074034;28;20017;-75
2021/01/27 03:11:23;;;;;;;5.78;4.82;;;2.10;99.90;;;;;;5074575;28;20028;-74
2021/01/27 03:13:49;;;;;;;7.10;5.85;;;2.00;99.90;;;;;;5076658;28;20486;-74
2021/01/27 03:16:37;;;;;;;7.95;6.20;;;1.90;99.90;;;;;;5074532;28;20024;-74
2021/01/27 03:19:17;;;;;;;6.97;4.78;;;1.70;99.90;;;;;;5065347;28;20035;-73
2021/01/27 03:21:53;;;;;;;5.72;4.20;;;1.70;99.90;;;;;;5073481;28;20020;-73
2021/01/27 03:24:22;;;;;;;9.90;5.57;;;1.70;99.90;;;;;;5067861;28;20025;-74
2021/01/27 03:27:02;;;;;;;5.25;4.28;;;1.70;99.90;;;;;;5073040;28;20027;-77
2021/01/27 03:29:51;;;;;;;7.20;5.25;;;1.80;99.90;;;;;;5072785;28;20021;-74
2021/01/27 03:32:41;;;;;;;5.57;4.95;;;1.80;99.90;;;;;;5070168;28;20029;-74
2021/01/27 03:35:27;;;;;;;5.38;4.15;;;1.80;99.90;;;;;;5068580;28;20130;-75
2021/01/27 03:38:07;;;;;;;8.05;5.25;;;1.80;99.90;;;;;;5067633;28;20092;-74
2021/01/27 03:40:35;;;;;;;9.93;5.35;;;1.80;99.90;;;;;;5073906;28;20154;-74
2021/01/27 03:43:17;;;;;;;4.65;4.03;;;1.80;99.90;;;;;;5064324;28;20059;-75
2021/01/27 03:45:48;;;;;;;7.13;4.00;;;1.80;99.90;;;;;;5071284;28;20024;-74
2021/01/27 03:48:21;;;;;;;5.30;4.00;;;1.70;99.90;;;;;;5066427;28;20517;-75
2021/01/27 03:50:52;;;;;;;6.68;4.68;;;1.60;99.90;;;;;;5075195;28;20029;-76
2021/01/27 03:53:18;;;;;;;9.43;4.38;;;1.70;99.90;;;;;;5070950;28;20115;-75
2021/01/27 03:57:14;;;;;;;5.50;3.95;;;1.60;99.90;;;;;;5073911;28;20041;-74
2021/01/27 03:59:15;;;;;;;6.25;4.50;;;1.60;99.90;;;;;;5059884;28;20395;-74
2021/01/27 04:01:52;;;;;;;6.60;4.57;;;1.50;99.90;;;;;;5070016;28;20025;-74
2021/01/27 04:04:20;;;;;;;7.20;4.78;;;1.50;99.90;;;;;;5072733;28;20021;-74
2021/01/27 04:06:46;;;;;;;5.22;4.15;;;1.60;99.90;;;;;;5062056;28;20029;-74
2021/01/27 04:09:14;;;;;;;7.00;4.55;;;1.70;99.90;;;;;;5073779;28;20028;-74
2021/01/27 04:11:40;;;;;;;5.55;4.38;;;1.70;99.90;;;;;;5071255;28;20430;-74
2021/01/27 04:14:07;;;;;;;8.00;4.70;;;1.60;99.90;;;;;;5073033;28;20119;-75
2021/01/27 04:16:33;;;;;;;5.85;4.28;;;1.60;99.90;;;;;;5074047;28;20033;-74
2021/01/27 04:19:01;;;;;;;5.07;4.50;;;1.60;99.90;;;;;;5063886;28;20049;-74
2021/01/27 04:21:30;;;;;;;10.50;5.28;;;1.60;99.90;;;;;;5073488;28;20359;-73
2021/01/27 04:23:56;;;;;;;6.15;3.92;;;1.60;99.90;;;;;;5073406;28;20031;-74
2021/01/27 04:26:22;;;;;;;6.55;3.97;;;1.70;99.90;;;;;;5064641;28;20028;-74
2021/01/27 04:28:50;;;;;;;4.75;4.25;;;1.70;99.90;;;;;;5070487;28;20032;-75
2021/01/27 04:31:16;;;;;;;7.20;5.28;;;1.70;99.90;;;;;;5072910;28;20103;-74
2021/01/27 04:33:42;;;;;;;8.38;5.22;;;1.60;99.90;;;;;;5063871;28;20033;-75
2021/01/27 04:36:08;;;;;;;6.18;4.53;;;1.60;99.90;;;;;;5073237;28;20028;-75
2021/01/27 04:38:34;;;;;;;7.55;4.57;;;1.70;99.90;;;;;;5072614;28;20030;-74
2021/01/27 04:41:00;;;;;;;14.80;5.10;;;1.80;99.90;;;;;;5064305;28;20024;-74
2021/01/27 04:43:31;;;;;;;9.50;5.80;;;1.70;99.90;;;;;;5071769;28;20024;-74
2021/01/27 04:46:07;;;;;;;5.40;4.40;;;1.60;99.90;;;;;;5071082;28;20021;-76
2021/01/27 04:48:49;;;;;;;3.83;3.45;;;1.50;99.90;;;;;;5067618;28;20330;-77
2021/01/27 04:51:27;;;;;;;7.35;4.00;;;1.50;99.90;;;;;;5068433;28;20017;-74
2021/01/27 04:54:20;;;;;;;7.55;4.32;;;1.50;99.90;;;;;;5068040;28;20020;-77
2021/01/27 04:56:58;;;;;;;5.05;3.95;;;1.60;99.90;;;;;;5071108;28;20021;-74
2021/01/27 05:00:02;;;;;;;6.07;4.70;;;1.50;99.90;;;;;;5067352;28;20054;-74
2021/01/27 05:02:40;;;;;;;5.72;5.03;;;1.60;99.90;;;;;;5067161;28;20025;-74
2021/01/27 05:05:16;;;;;;;7.57;4.50;;;1.60;99.90;;;;;;5072129;28;20063;-73
2021/01/27 05:07:45;;;;;;;5.55;4.10;;;1.60;99.90;;;;;;5068938;28;20029;-73
2021/01/27 05:10:15;;;;;;;7.80;5.10;;;1.60;99.90;;;;;;5071857;28;20035;-75
2021/01/27 05:12:55;;;;;;;7.82;5.50;;;1.60;99.90;;;;;;5063561;28;20028;-74
2021/01/27 05:15:23;;;;;;;6.57;5.65;;;1.50;99.90;;;;;;5068583;28;20074;-74
2021/01/27 05:17:50;;;;;;;7.57;4.50;;;1.40;99.90;;;;;;5065676;28;20115;-75
2021/01/27 05:20:19;;;;;;;7.82;5.25;;;1.40;99.90;;;;;;5073703;28;20028;-78
2021/01/27 05:22:45;;;;;;;6.90;4.57;;;1.30;99.90;;;;;;5071801;28;20108;-76
2021/01/27 05:25:42;;;;;;;6.18;4.35;;;1.30;99.90;;;;;;5070396;28;20551;-75
2021/01/27 05:28:35;;;;;;;7.95;4.80;;;1.30;99.90;;;;;;5082473;28;20013;-74
2021/01/27 05:31:07;;;;;;;5.70;4.82;;;1.40;99.90;;;;;;5073683;28;20096;-74
2021/01/27 05:33:43;;;;;;;6.28;4.70;;;1.50;99.90;;;;;;5071372;28;20547;-74
2021/01/27 05:36:16;;;;;;;9.18;4.70;;;1.50;99.90;;;;;;5067608;28;20040;-76
2021/01/27 05:38:42;;;;;;;15.95;6.57;;;1.50;99.90;;;;;;5071677;28;20028;-74
2021/01/27 05:41:34;;;;;;;14.60;5.95;;;1.60;99.90;;;;;;5067893;28;20107;-74
2021/01/27 05:44:13;;;;;;;10.63;6.55;;;1.80;99.90;;;;;;5061249;28;20036;-74
2021/01/27 05:46:41;;;;;;;15.05;6.65;;;1.70;99.90;;;;;;5068416;28;20032;-74
2021/01/27 05:49:30;;;;;;;13.80;7.60;;;1.60;99.90;;;;;;5060906;28;20418;-74
2021/01/27 05:52:13;;;;;;;16.85;6.65;;;1.60;99.90;;;;;;5066893;28;20056;-74
2021/01/27 05:54:40;;;;;;;16.00;6.93;;;1.60;99.90;;;;;;5070072;28;20489;-74
2021/01/27 05:57:19;;;;;;;10.95;6.53;;;1.60;99.90;;;;;;5075064;28;20090;-73
2021/01/27 05:59:47;;;;;;;14.93;7.07;;;1.50;99.90;;;;;;5071807;28;20020;-73
2021/01/27 06:02:14;;;;;;;11.27;5.10;;;1.60;99.90;;;;;;5072233;28;20017;-73
2021/01/27 06:04:40;;;;;;;10.13;6.75;;;1.50;99.90;;;;;;5067915;28;20509;-73
2021/01/27 06:07:20;;;;;;;8.15;5.15;;;1.40;99.90;;;;;;5071364;28;20857;-73
2021/01/27 06:09:50;;;;;;;8.57;6.07;;;1.30;99.90;;;;;;5072934;28;20020;-73
2021/01/27 06:12:19;;;;;;;8.07;5.63;;;1.40;99.90;;;;;;5080413;28;20028;-73
2021/01/27 06:14:49;;;;;;;9.00;5.50;;;1.30;99.90;;;;;;5074465;28;20433;-73
2021/01/27 06:17:31;;;;;;;13.90;5.95;;;1.40;99.90;;;;;;5074956;28;20371;-73
2021/01/27 06:20:31;;;;;;;8.45;5.57;;;1.40;99.90;;;;;;5074056;28;20028;-73
2021/01/27 06:23:12;;;;;;;13.25;5.15;;;1.50;99.90;;;;;;5067814;28;20039;-75
2021/01/27 06:26:08;;;;;;;9.38;6.65;;;1.50;99.90;;;;;;5081133;28;20052;-73
2021/01/27 06:29:09;;;;;;;10.30;5.63;;;1.50;99.90;;;;;;5074249;28;20070;-75
2021/01/27 06:31:49;;;;;;;14.40;6.35;;;1.50;99.90;;;;;;5074925;28;20304;-74
2021/01/27 06:34:43;;;;;;;9.07;6.05;;;1.50;99.90;;;;;;5081494;28;20206;-74
2021/01/27 06:37:41;;;;;;;12.20;5.78;;;1.40;99.90;;;;;;5068938;28;20014;-74
2021/01/27 06:40:31;;;;;;;13.77;6.35;;;1.30;99.90;;;;;;5077646;28;20393;-74
2021/01/27 06:43:25;;;;;;;9.55;6.95;;;1.20;99.90;;;;;;5074760;28;20465;-74
2021/01/27 06:46:28;;;;;;;18.77;5.82;;;1.40;99.90;;;;;;5066944;28;20028;-75
2021/01/27 06:49:12;;;;;;;14.27;5.82;;;1.60;99.90;;;;;;5065316;28;20124;-74
2021/01/27 06:51:47;;;;;;;9.40;5.70;;;1.80;99.90;;;;;;5071354;28;20062;-72
2021/01/27 06:54:26;;;;;;;6.95;5.53;;;2.00;99.90;;;;;;5075795;28;20028;-75
2021/01/27 06:57:26;;;;;;;10.18;6.32;;;2.10;99.90;;;;;;5063587;28;20407;-74
2021/01/27 07:00:11;;;;;;;12.95;6.55;;;2.10;99.90;;;;;;5063701;28;20028;-75
2021/01/27 07:03:01;;;;;;;17.77;5.85;;;2.30;99.90;;;;;;5067332;28;21678;-74
2021/01/27 07:05:36;;;;;;;14.15;6.88;;;2.40;99.90;;;;;;5071157;28;20474;-76
2021/01/27 07:08:23;;;;;;;10.90;7.45;;;2.50;99.90;;;;;;5068160;28;20791;-74
2021/01/27 07:10:52;;;;;;;9.73;6.70;;;2.50;99.90;;;;;;5075194;28;20024;-74
2021/01/27 07:13:52;;;;;;;11.25;7.00;;;2.50;99.90;;;;;;5074307;28;20036;-73
2021/01/27 07:16:23;;;;;;;12.63;7.20;;;2.50;99.90;;;;;;5065892;28;20021;-73
2021/01/27 07:18:58;;;;;;;18.17;7.95;;;2.40;99.90;;;;;;5070446;28;20028;-74
2021/01/27 07:21:36;;;;;;;12.25;7.82;;;2.40;99.90;;;;;;5075092;28;20064;-74
2021/01/27 07:24:13;;;;;;;22.60;8.15;;;2.40;99.90;;;;;;5074993;28;20071;-74
2021/01/27 07:26:52;;;;;;;17.27;7.00;;;2.50;99.90;;;;;;5066787;28;20111;-74
2021/01/27 07:29:19;;;;;;;18.45;10.27;;;2.50;99.90;;;;;;5068772;28;20034;-75
2021/01/27 07:32:09;;;;;;;16.52;8.18;;;2.60;99.90;;;;;;5070773;28;20032;-77
2021/01/27 07:34:51;;;;;;;9.35;7.30;;;2.70;99.90;;;;;;5069007;28;20029;-75
2021/01/27 07:37:40;;;;;;;9.55;5.55;;;2.90;99.90;;;;;;5070427;28;20037;-78
2021/01/27 07:40:25;;;;;;;6.10;4.70;;;3.20;99.90;;;;;;5070871;28;20045;-75
2021/01/27 07:43:11;;;;;;;6.72;4.93;;;3.40;99.90;;;;;;5065899;28;20029;-74
2021/01/27 07:45:39;;;;;;;5.75;4.50;;;3.60;99.90;;;;;;5069578;28;20063;-79
2021/01/27 07:48:17;;;;;;;7.30;4.40;;;3.80;99.90;;;;;;5070046;28;20020;-76
2021/01/27 07:50:49;;;;;;;4.65;3.85;;;4.00;99.90;;;;;;5067825;28;20037;-76
2021/01/27 07:53:32;;;;;;;11.68;4.80;;;4.10;99.90;;;;;;5062867;28;20021;-74
2021/01/27 07:56:02;;;;;;;5.22;4.20;;;4.10;99.90;;;;;;5067308;28;20131;-74
2021/01/27 07:58:49;;;;;;;5.72;4.13;;;4.10;99.90;;;;;;5068649;28;20099;-74
2021/01/27 08:01:29;;;;;;;12.38;4.78;;;4.20;99.90;;;;;;5072445;28;20059;-74
2021/01/27 08:04:13;;;;;;;11.90;5.35;;;4.30;99.90;;;;;;5065205;28;20054;-74
2021/01/27 08:06:46;;;;;;;10.23;5.43;;;4.40;99.90;;;;;;5064997;28;20183;-74
2021/01/27 08:09:21;;;;;;;11.68;4.90;;;4.30;99.90;;;;;;5066871;28;20024;-74
2021/01/27 08:11:47;;;;;;;8.15;5.90;;;4.30;99.90;;;;;;5070324;28;20025;-74
2021/01/27 08:14:14;;;;;;;8.95;4.55;;;4.30;99.90;;;;;;5070540;28;20077;-74
2021/01/27 08:16:44;;;;;;;7.57;5.20;;;4.40;99.90;;;;;;5070537;28;20059;-73
2021/01/27 08:19:10;;;;;;;8.10;4.80;;;4.60;99.90;;;;;;5064294;28;20033;-74
2021/01/27 08:21:45;;;;;;;13.07;6.03;;;4.70;99.90;;;;;;5066673;28;20512;-73
2021/01/27 08:24:36;;;;;;;9.98;5.00;;;4.90;99.90;;;;;;5066229;28;20021;-73
2021/01/27 08:27:14;;;;;;;12.15;3.83;;;5.30;99.90;;;;;;5067442;28;20028;-75
2021/01/27 08:29:53;;;;;;;12.82;4.80;;;5.50;99.90;;;;;;5069480;28;20063;-75
2021/01/27 08:32:32;;;;;;;11.05;5.20;;;5.60;99.90;;;;;;5070612;28;20040;-75
2021/01/27 08:35:06;;;;;;;10.85;4.82;;;5.60;99.90;;;;;;5068069;28;20051;-75
2021/01/27 08:37:40;;;;;;;7.50;3.53;;;5.50;99.90;;;;;;5067839;28;20036;-75
2021/01/27 08:40:21;;;;;;;8.00;4.50;;;5.60;99.90;;;;;;5067269;28;20021;-74
2021/01/27 08:42:59;;;;;;;13.27;5.05;;;5.80;99.90;;;;;;5066070;28;20056;-74
2021/01/27 08:45:29;;;;;;;8.15;5.70;;;5.90;99.90;;;;;;5064978;28;20017;-74
2021/01/27 08:48:02;;;;;;;6.35;4.38;;;6.00;99.90;;;;;;5068368;28;20673;-74
2021/01/27 08:50:49;;;;;;;9.85;5.80;;;6.00;99.90;;;;;;5064734;28;20147;-74
2021/01/27 08:53:52;;;;;;;9.30;6.03;;;6.20;99.90;;;;;;5063689;28;20020;-74
2021/01/27 08:56:18;;;;;;;11.68;5.50;;;6.30;99.90;;;;;;5071091;28;20047;-77
2021/01/27 08:58:49;;;;;;;12.20;5.78;;;6.30;99.90;;;;;;5063422;28;20037;-75
2021/01/27 09:01:23;;;;;;;5.28;4.05;;;6.40;99.90;;;;;;5071818;28;20044;-74
2021/01/27 09:03:52;;;;;;;16.70;5.50;;;6.50;99.90;;;;;;5068428;28;20029;-74
2021/01/27 09:06:30;;;;;;;7.97;4.97;;;6.70;99.90;;;;;;5068828;28;20020;-75
2021/01/27 09:09:26;;;;;;;5.85;4.85;;;6.80;99.90;;;;;;5066190;28;20052;-73
2021/01/27 09:12:01;;;;;;;5.97;4.90;;;6.80;99.90;;;;;;5070438;28;20517;-73
2021/01/27 09:14:27;;;;;;;6.90;4.60;;;6.90;99.90;;;;;;5068316;28;20024;-73
2021/01/27 09:16:54;;;;;;;5.70;4.68;;;7.00;99.90;;;;;;5062843;28;20029;-73
2021/01/27 09:19:28;;;;;;;7.50;5.53;;;7.00;99.90;;;;;;5067941;28;20031;-73
2021/01/27 09:22:08;;;;;;;6.68;4.20;;;7.00;99.90;;;;;;5066078;28;20088;-73
2021/01/27 09:24:52;;;;;;;7.30;4.97;;;7.00;99.90;;;;;;5067001;28;20031;-74
2021/01/27 09:27:24;;;;;;;6.57;5.85;;;7.10;99.90;;;;;;5063173;28;20046;-74
2021/01/27 09:30:05;;;;;;;8.68;6.32;;;7.20;99.90;;;;;;5071381;28;20028;-74
2021/01/27 09:32:32;;;;;;;7.82;5.13;;;7.10;99.90;;;;;;5063415;28;20067;-75
2021/01/27 09:35:12;;;;;;;9.60;7.40;;;7.20;99.90;;;;;;5065127;28;20039;-75
2021/01/27 09:38:03;;;;;;;8.05;6.80;;;7.20;99.90;;;;;;5071079;28;20031;-75
2021/01/27 09:40:28;;;;;;;9.25;7.05;;;7.30;99.90;;;;;;5068657;28;20033;-75
2021/01/27 09:42:59;;;;;;;7.07;6.30;;;7.30;99.90;;;;;;5070685;28;20040;-75
2021/01/27 09:45:29;;;;;;;8.77;7.68;;;7.30;99.90;;;;;;5072475;28;20021;-75
2021/01/27 09:48:17;;;;;;;12.52;7.60;;;7.30;99.90;;;;;;5070723;28;20039;-75
2021/01/27 09:50:53;;;;;;;11.57;8.30;;;7.30;99.90;;;;;;5068422;28;20051;-75
2021/01/27 09:53:29;;;;;;;16.58;8.60;;;7.40;99.90;;;;;;5062930;28;20063;-75
2021/01/27 09:55:56;;;;;;;9.85;7.07;;;7.50;99.90;;;;;;5072933;28;20470;-75
2021/01/27 09:58:32;;;;;;;7.72;6.97;;;7.50;99.90;;;;;;5066375;28;20542;-75
2021/01/27 10:01:03;;;;;;;9.75;8.75;;;7.50;99.90;;;;;;5070730;28;20550;-75
2021/01/27 10:03:38;;;;;;;9.43;8.43;;;7.60;99.90;;;;;;5067416;28;20033;-75
2021/01/27 10:06:23;;;;;;;11.32;8.48;;;7.60;99.90;;;;;;5062694;28;20508;-75
2021/01/27 10:08:54;;;;;;;9.50;7.00;;;7.70;99.90;;;;;;5065605;28;20111;-75
2021/01/27 10:11:33;;;;;;;8.77;7.20;;;7.70;99.90;;;;;;5066398;28;20552;-75
2021/01/27 10:14:20;;;;;;;10.57;6.78;;;7.70;99.90;;;;;;5064867;28;20112;-75
2021/01/27 10:16:57;;;;;;;7.15;6.38;;;7.70;99.90;;;;;;5064367;28;20667;-75
2021/01/27 10:19:33;;;;;;;13.77;6.97;;;7.80;99.90;;;;;;5073048;28;20058;-75
2021/01/27 10:22:02;;;;;;;9.57;6.38;;;7.80;99.90;;;;;;5067935;28;20099;-75
2021/01/27 10:25:03;;;;;;;11.63;6.88;;;7.80;99.90;;;;;;5071821;28;20097;-75
2021/01/27 10:27:34;;;;;;;9.32;7.28;;;7.90;99.90;;;;;;5042235;28;20044;-75
2021/01/27 10:30:28;;;;;;;14.18;9.95;;;8.10;99.90;;;;;;5069992;28;20104;-75
2021/01/27 10:32:55;;;;;;;13.18;9.77;;;8.20;99.90;;;;;;5070414;28;20077;-75
2021/01/27 10:35:24;;;;;;;12.15;8.98;;;8.40;99.90;;;;;;5067824;28;20032;-75
2021/01/27 10:38:04;;;;;;;15.32;9.32;;;8.50;99.90;;;;;;5064135;28;20039;-75
2021/01/27 10:40:35;;;;;;;16.00;10.45;;;8.60;99.90;;;;;;5071338;28;20081;-75
2021/01/27 10:43:22;;;;;;;13.23;8.80;;;8.40;99.90;;;;;;5063414;28;20017;-75
2021/01/27 10:45:48;;;;;;;14.02;9.35;;;8.20;99.90;;;;;;5071923;28;20024;-75
2021/01/27 10:48:29;;;;;;;14.98;10.50;;;8.20;99.90;;;;;;5066558;28;20483;-75
2021/01/27 10:50:55;;;;;;;13.05;10.52;;;8.10;99.90;;;;;;5068721;28;20522;-75
2021/01/27 10:53:21;;;;;;;11.65;10.20;;;8.10;99.90;;;;;;5068822;28;20126;-75
2021/01/27 10:55:55;;;;;;;14.05;9.20;;;8.00;99.90;;;;;;5075565;28;20111;-75
2021/01/27 10:58:22;;;;;;;12.80;10.90;;;7.90;99.90;;;;;;5067489;28;21551;-75
2021/01/27 11:00:49;;;;;;;11.88;8.82;;;8.00;99.90;;;;;;5075075;28;20167;-75
2021/01/27 11:03:14;;;;;;;19.13;13.23;;;8.00;99.90;;;;;;5068474;28;20375;-75
2021/01/27 11:05:47;;;;;;;13.55;11.65;;;8.00;99.90;;;;;;5073212;28;20021;-75
2021/01/27 11:08:21;;;;;;;21.20;11.32;;;8.00;99.90;;;;;;5066260;28;20103;-75
2021/01/27 11:10:46;;;;;;;18.70;10.93;;;8.20;99.90;;;;;;5068596;28;20037;-75
2021/01/27 11:13:12;;;;;;;13.68;10.80;;;8.20;99.90;;;;;;5074190;28;20076;-75
2021/01/27 11:15:38;;;;;;;16.27;11.65;;;8.30;99.90;;;;;;5073613;28;20343;-75
2021/01/27 11:18:04;;;;;;;16.10;12.30;;;8.30;99.90;;;;;;5068997;28;20063;-76
2021/01/27 11:20:30;;;;;;;15.15;12.35;;;8.20;99.90;;;;;;5073214;28;20025;-75
2021/01/27 11:22:59;;;;;;;18.20;13.25;;;8.20;99.90;;;;;;5065114;28;20170;-75
2021/01/27 11:25:27;;;;;;;12.55;11.30;;;8.20;99.90;;;;;;5072057;28;20108;-76
2021/01/27 11:27:53;;;;;;;15.25;11.27;;;8.20;99.90;;;;;;5065561;28;20017;-76
2021/01/27 11:30:24;;;;;;;12.63;10.88;;;8.30;99.90;;;;;;5070366;28;20036;-76
2021/01/27 11:32:51;;;;;;;14.55;10.43;;;8.30;99.90;;;;;;5066545;28;20033;-75
2021/01/27 11:35:17;;;;;;;15.32;11.18;;;8.40;99.90;;;;;;5074602;28;20028;-76
2021/01/27 11:37:44;;;;;;;14.00;11.27;;;8.50;99.90;;;;;;5069431;28;20029;-75
2021/01/27 11:40:11;;;;;;;14.25;11.10;;;8.80;99.90;;;;;;5076454;28;20152;-76
2021/01/27 11:42:37;;;;;;;13.30;11.25;;;8.90;99.90;;;;;;5065104;28;20092;-76
2021/01/27 11:45:05;;;;;;;17.13;11.13;;;9.10;99.90;;;;;;5063582;28;20025;-76
2021/01/27 11:47:31;;;;;;;13.65;9.85;;;9.30;99.90;;;;;;5062310;28;20055;-75
2021/01/27 11:49:57;;;;;;;18.05;10.65;;;9.20;99.90;;;;;;5074137;28;20397;-76
2021/01/27 11:52:23;;;;;;;17.02;11.35;;;9.30;99.90;;;;;;5070900;28;20732;-73
2021/01/27 11:54:50;;;;;;;13.05;9.30;;;9.20;99.90;;;;;;5073459;28;20091;-73
2021/01/27 11:57:20;;;;;;;12.85;10.68;;;9.20;99.90;;;;;;5067184;28;20113;-73
2021/01/27 11:59:48;;;;;;;9.82;8.73;;;9.30;99.90;;;;;;5072565;28;20074;-74
2021/01/27 12:02:38;;;;;;;8.93;8.02;;;9.20;99.90;;;;;;5066438;28;20058;-73
2021/01/27 12:05:04;;;;;;;14.02;9.00;;;9.40;99.90;;;;;;5071850;28;20100;-74
2021/01/27 12:07:30;;;;;;;13.10;8.77;;;9.40;99.90;;;;;;5069307;28;20029;-74
2021/01/27 12:09:56;;;;;;;8.80;7.90;;;9.40;99.90;;;;;;5070108;28;20047;-74
2021/01/27 12:12:22;;;;;;;9.63;7.90;;;9.30;99.90;;;;;;5077008;28;20028;-74
2021/01/27 12:14:48;;;;;;;12.25;9.85;;;9.40;99.90;;;;;;5070260;28;20093;-73
2021/01/27 12:17:14;;;;;;;20.48;9.52;;;9.30;99.90;;;;;;5070555;28;20033;-74
2021/01/27 12:19:40;;;;;;;11.13;8.63;;;9.30;99.90;;;;;;5077760;28;20036;-73
2021/01/27 12:22:15;;;;;;;9.48;7.57;;;9.20;99.90;;;;;;5076941;28;20021;-74
2021/01/27 12:24:41;;;;;;;21.40;9.95;;;9.10;99.90;;;;;;5071952;28;20635;-74
2021/01/27 12:27:07;;;;;;;8.18;7.22;;;9.30;99.90;;;;;;5066935;28;20027;-73
2021/01/27 12:29:33;;;;;;;11.02;8.82;;;9.30;99.90;;;;;;5063858;28;20036;-74
2021/01/27 12:31:59;;;;;;;10.73;9.68;;;9.40;99.90;;;;;;5065265;28;20025;-74
2021/01/27 12:34:25;;;;;;;11.63;9.07;;;9.50;99.90;;;;;;5065791;28;20482;-73
2021/01/27 12:36:50;;;;;;;9.32;7.93;;;9.70;99.90;;;;;;5072566;28;20489;-74
2021/01/27 12:39:16;;;;;;;10.43;7.03;;;9.70;99.90;;;;;;5072077;28;20032;-74
2021/01/27 12:41:43;;;;;;;9.43;7.70;;;9.60;99.90;;;;;;5070122;28;20078;-74
2021/01/27 12:44:09;;;;;;;13.25;7.53;;;9.70;99.90;;;;;;5063832;28;20024;-74
2021/01/27 12:46:35;;;;;;;7.38;6.65;;;9.60;99.90;;;;;;5067370;28;20123;-73
2021/01/27 12:49:01;;;;;;;7.88;7.00;;;9.30;99.90;;;;;;5067451;28;20482;-73
2021/01/27 12:51:27;;;;;;;8.52;6.50;;;9.30;99.90;;;;;;5078797;28;20031;-74
2021/01/27 12:53:53;;;;;;;11.40;7.53;;;9.40;99.90;;;;;;5069649;28;20130;-74
2021/01/27 12:56:33;;;;;;;9.35;7.07;;;9.20;99.90;;;;;;5083760;28;20272;-74
2021/01/27 12:58:58;;;;;;;12.13;7.80;;;9.10;99.90;;;;;;5070905;28;20021;-73
2021/01/27 13:01:24;;;;;;;13.18;8.15;;;9.10;99.90;;;;;;5066216;28;20024;-73
2021/01/27 13:03:57;;;;;;;7.68;6.07;;;8.90;99.90;;;;;;5071033;28;20463;-73
2021/01/27 13:06:23;;;;;;;10.45;7.65;;;8.80;99.90;;;;;;5068148;28;20100;-73
2021/01/27 13:08:49;;;;;;;14.13;7.03;;;8.80;99.90;;;;;;5069264;28;20064;-73
2021/01/27 13:11:14;;;;;;;9.05;5.47;;;8.80;99.90;;;;;;5063415;28;20021;-73
2021/01/27 13:13:40;;;;;;;14.15;8.20;;;8.90;99.90;;;;;;5080407;28;20020;-73
2021/01/27 13:16:06;;;;;;;10.93;7.70;;;9.00;99.90;;;;;;5070249;28;20490;-73
2021/01/27 13:18:32;;;;;;;8.52;6.13;;;9.00;99.90;;;;;;5070984;28;20440;-74
2021/01/27 13:21:08;;;;;;;8.80;7.75;;;9.20;99.90;;;;;;5072123;28;20099;-74
2021/01/27 13:23:36;;;;;;;6.05;5.35;;;9.20;99.90;;;;;;5064738;28;20466;-73
2021/01/27 13:26:03;;;;;;;7.15;5.85;;;9.00;99.90;;;;;;5068807;28;20232;-74